Time,TemperatureF,DewpointF,PressureIn,WindDirection,WindDirectionDegrees,WindSpeedMPH,WindSpeedGustMPH,Humidity,HourlyPrecipIn,Conditions,Clouds,dailyrainin,SoftwareType,DateUTC
2013-05-11 00:02:00,43.0,41.0,29.96,NNE,30,5.0,10.0,93,0.00,,,0.07,,2013-05-11 04:02:00,
2013-05-11 00:12:00,43.0,41.0,29.96,NNE,30,5.0,10.0,93,0.00,,,0.07,,2013-05-11 04:12:00,
2013-05-11 00:23:00,43.0,41.0,29.96,NE,35,3.0,7.0,93,0.00,,,0.07,,2013-05-11 04:23:00,
2013-05-11 00:33:00,43.0,41.0,29.96,North,5,2.0,8.0,93,0.00,,,0.00,,2013-05-11 04:33:00,
2013-05-11 00:43:00,43.0,41.0,29.96,North,9,4.0,9.0,93,0.00,,,0.00,,2013-05-11 04:43:00,
2013-05-11 00:52:00,43.0,41.0,29.96,North,9,4.0,9.0,93,0.00,,,0.00,,2013-05-11 04:52:00,
2013-05-11 01:02:00,43.0,41.0,29.96,NNE,28,4.0,7.0,93,0.00,,,0.00,,2013-05-11 05:02:00,
2013-05-11 01:12:00,43.0,41.0,29.96,NNE,28,4.0,7.0,93,0.00,,,0.00,,2013-05-11 05:12:00,
2013-05-11 01:21:00,43.0,41.0,29.96,NNE,17,4.0,6.0,93,0.00,,,0.00,,2013-05-11 05:21:00,
2013-05-11 01:32:00,43.0,41.0,29.96,NNE,21,3.0,9.0,94,0.00,,,0.00,,2013-05-11 05:32:00,
2013-05-11 01:42:00,43.0,41.0,29.96,NNE,21,3.0,9.0,94,0.00,,,0.00,,2013-05-11 05:42:00,
2013-05-11 01:52:00,43.0,41.0,29.96,NNE,13,3.0,7.0,94,0.00,,,0.00,,2013-05-11 05:52:00,
2013-05-11 02:02:00,44.0,42.0,29.96,NNW,346,2.0,6.0,93,0.00,,,0.00,,2013-05-11 06:02:00,
2013-05-11 02:12:00,44.0,42.0,29.96,NNW,346,2.0,6.0,93,0.00,,,0.00,,2013-05-11 06:12:00,
2013-05-11 02:21:00,44.0,42.0,29.97,NNW,341,3.0,7.0,93,0.00,,,0.00,,2013-05-11 06:21:00,
2013-05-11 02:32:00,44.0,42.0,29.97,North,350,3.0,8.0,94,0.00,,,0.00,,2013-05-11 06:32:00,
2013-05-11 02:42:00,44.0,42.0,29.97,NW,319,3.0,5.0,94,0.00,,,0.00,,2013-05-11 06:42:00,
2013-05-11 02:52:00,44.0,42.0,29.97,NW,319,3.0,5.0,94,0.00,,,0.00,,2013-05-11 06:52:00,
2013-05-11 03:02:00,44.0,42.0,29.98,NW,314,4.0,8.0,94,0.00,,,0.00,,2013-05-11 07:02:00,
2013-05-11 03:11:00,44.0,42.0,29.98,NW,314,4.0,8.0,94,0.00,,,0.00,,2013-05-11 07:11:00,
2013-05-11 03:21:00,44.0,42.0,29.98,NW,326,2.0,7.0,94,0.00,,,0.00,,2013-05-11 07:21:00,
2013-05-11 03:32:00,44.0,42.0,29.98,NNW,338,3.0,6.0,94,0.00,,,0.00,,2013-05-11 07:32:00,
2013-05-11 03:42:00,44.0,42.0,29.98,NNW,338,3.0,6.0,94,0.00,,,0.00,,2013-05-11 07:42:00,
2013-05-11 03:52:00,44.0,42.0,29.98,North,350,3.0,6.0,93,0.00,,,0.00,,2013-05-11 07:52:00,
2013-05-11 04:01:00,44.0,42.0,29.98,NNW,327,3.0,7.0,93,0.00,,,0.00,,2013-05-11 08:01:00,
2013-05-11 04:12:00,44.0,42.0,29.98,NNW,327,3.0,7.0,93,0.00,,,0.00,,2013-05-11 08:12:00,
2013-05-11 04:21:00,44.0,42.0,29.98,WNW,285,4.0,7.0,93,0.00,,,0.00,,2013-05-11 08:21:00,
2013-05-11 04:32:00,44.0,42.0,29.98,NW,321,3.0,5.0,93,0.00,,,0.00,,2013-05-11 08:32:00,
2013-05-11 04:42:00,44.0,42.0,29.98,NNW,336,3.0,7.0,92,0.00,,,0.00,,2013-05-11 08:42:00,
2013-05-11 04:52:00,44.0,42.0,29.98,NNW,336,3.0,7.0,92,0.00,,,0.00,,2013-05-11 08:52:00,
2013-05-11 05:01:00,44.0,42.0,29.98,NW,317,3.0,6.0,93,0.00,,,0.00,,2013-05-11 09:01:00,
2013-05-11 05:11:00,44.0,42.0,29.98,NW,317,3.0,6.0,93,0.00,,,0.00,,2013-05-11 09:11:00,
2013-05-11 05:21:00,44.0,42.0,29.98,NW,313,5.0,8.0,93,0.00,,,0.00,,2013-05-11 09:21:00,
2013-05-11 05:32:00,44.0,42.0,29.97,NW,309,4.0,7.0,93,0.00,,,0.00,,2013-05-11 09:32:00,
2013-05-11 05:42:00,44.0,42.0,29.97,NW,309,4.0,7.0,93,0.00,,,0.00,,2013-05-11 09:42:00,
2013-05-11 05:52:00,44.0,42.0,29.97,NNW,340,1.0,5.0,93,0.00,,,0.00,,2013-05-11 09:52:00,
2013-05-11 06:03:00,45.0,43.0,29.96,NNW,334,1.0,4.0,93,0.00,,,0.00,,2013-05-11 10:03:00,
2013-05-11 06:12:00,45.0,43.0,29.96,NNW,334,1.0,4.0,93,0.00,,,0.00,,2013-05-11 10:12:00,
2013-05-11 06:22:00,45.0,43.0,29.96,NNW,332,2.0,5.0,93,0.00,,,0.00,,2013-05-11 10:22:00,
2013-05-11 06:33:00,45.0,43.0,29.96,NNW,329,2.0,5.0,93,0.00,,,0.00,,2013-05-11 10:33:00,
2013-05-11 06:42:00,45.0,43.0,29.96,NNW,329,2.0,5.0,93,0.00,,,0.00,,2013-05-11 10:42:00,
2013-05-11 06:52:00,45.0,43.0,29.96,NNW,329,3.0,7.0,94,0.00,,,0.00,,2013-05-11 10:52:00,
2013-05-11 07:02:00,45.0,43.0,29.96,NNW,329,3.0,7.0,94,0.00,,,0.00,,2013-05-11 11:02:00,
2013-05-11 07:12:00,45.0,43.0,29.96,NNW,329,3.0,7.0,94,0.00,,,0.00,,2013-05-11 11:12:00,
2013-05-11 07:21:00,45.0,44.0,29.95,WNW,302,2.0,4.0,95,0.00,,,0.00,,2013-05-11 11:21:00,
2013-05-11 07:32:00,45.0,44.0,29.95,WNW,284,3.0,5.0,95,0.00,,,0.00,,2013-05-11 11:32:00,
2013-05-11 07:42:00,45.0,44.0,29.95,WNW,284,3.0,5.0,95,0.00,,,0.00,,2013-05-11 11:42:00,
2013-05-11 07:51:00,45.0,44.0,29.95,WNW,287,4.0,6.0,95,0.00,,,0.00,,2013-05-11 11:51:00,
2013-05-11 08:01:00,45.0,44.0,29.95,WNW,291,3.0,6.0,96,0.00,,,0.00,,2013-05-11 12:01:00,
2013-05-11 08:11:00,45.0,44.0,29.95,WNW,291,3.0,6.0,96,0.00,,,0.00,,2013-05-11 12:11:00,
2013-05-11 08:22:00,46.0,45.0,29.95,WNW,287,5.0,8.0,96,0.00,,,0.00,,2013-05-11 12:22:00,
2013-05-11 08:32:00,46.0,45.0,29.95,WNW,290,5.0,8.0,95,0.00,,,0.00,,2013-05-11 12:32:00,
2013-05-11 08:42:00,46.0,45.0,29.95,WNW,290,5.0,8.0,95,0.00,,,0.00,,2013-05-11 12:42:00,
2013-05-11 08:51:00,47.0,46.0,29.95,WNW,286,4.0,9.0,95,0.00,,,0.00,,2013-05-11 12:51:00,
2013-05-11 09:02:00,47.0,45.0,29.95,WNW,298,3.0,7.0,94,0.00,,,0.00,,2013-05-11 13:02:00,
2013-05-11 09:11:00,47.0,45.0,29.95,WNW,298,3.0,7.0,94,0.00,,,0.00,,2013-05-11 13:11:00,
2013-05-11 09:21:00,47.0,45.0,29.94,NW,304,5.0,10.0,93,0.00,,,0.00,,2013-05-11 13:21:00,
2013-05-11 09:32:00,48.0,46.0,29.94,WNW,284,5.0,8.0,92,0.00,,,0.00,,2013-05-11 13:32:00,
2013-05-11 09:42:00,48.0,46.0,29.94,WNW,284,5.0,8.0,92,0.00,,,0.00,,2013-05-11 13:42:00,
2013-05-11 09:52:00,48.0,46.0,29.94,WNW,284,5.0,8.0,92,0.00,,,0.00,,2013-05-11 13:52:00,
2013-05-11 10:02:00,48.0,45.0,29.95,West,267,4.0,8.0,91,0.00,,,0.00,,2013-05-11 14:02:00,
2013-05-11 10:11:00,48.0,45.0,29.95,West,267,4.0,8.0,91,0.00,,,0.00,,2013-05-11 14:11:00,
2013-05-11 10:21:00,48.0,45.0,29.96,WNW,286,6.0,9.0,91,0.00,,,0.00,,2013-05-11 14:21:00,
2013-05-11 10:32:00,49.0,46.0,29.96,WNW,292,6.0,10.0,91,0.00,,,0.00,,2013-05-11 14:32:00,
2013-05-11 10:41:00,49.0,46.0,29.96,WNW,292,6.0,10.0,91,0.00,,,0.00,,2013-05-11 14:41:00,
2013-05-11 10:51:00,49.0,46.0,29.95,WNW,288,6.0,11.0,90,0.00,,,0.00,,2013-05-11 14:51:00,
2013-05-11 11:01:00,49.0,46.0,29.95,West,269,7.0,12.0,90,0.00,,,0.00,,2013-05-11 15:01:00,
2013-05-11 11:11:00,49.0,46.0,29.95,West,269,7.0,12.0,90,0.00,,,0.00,,2013-05-11 15:11:00,
2013-05-11 11:21:00,50.0,47.0,29.95,WNW,286,8.0,12.0,89,0.00,,,0.00,,2013-05-11 15:21:00,
2013-05-11 11:32:00,50.0,47.0,29.95,WNW,287,5.0,10.0,89,0.00,,,0.00,,2013-05-11 15:32:00,
2013-05-11 11:43:00,50.0,47.0,29.95,WNW,287,5.0,10.0,89,0.00,,,0.00,,2013-05-11 15:43:00,
2013-05-11 11:53:00,51.0,48.0,29.94,West,274,4.0,9.0,89,0.00,,,0.00,,2013-05-11 15:53:00,
2013-05-11 12:02:00,52.0,49.0,29.93,West,277,5.0,11.0,88,0.01,,,0.01,,2013-05-11 16:02:00,
2013-05-11 12:12:00,52.0,49.0,29.93,West,277,5.0,11.0,88,0.01,,,0.01,,2013-05-11 16:12:00,
2013-05-11 12:23:00,53.0,49.0,29.93,SW,231,4.0,8.0,85,0.01,,,0.01,,2013-05-11 16:23:00,
2013-05-11 12:33:00,55.0,50.0,29.93,West,269,4.0,9.0,83,0.01,,,0.01,,2013-05-11 16:33:00,
2013-05-11 12:42:00,55.0,50.0,29.93,West,269,4.0,9.0,83,0.01,,,0.01,,2013-05-11 16:42:00,
2013-05-11 12:52:00,56.0,50.0,29.91,West,266,3.0,10.0,81,0.01,,,0.01,,2013-05-11 16:52:00,
2013-05-11 13:02:00,57.0,51.0,29.91,SW,222,3.0,9.0,81,0.00,,,0.01,,2013-05-11 17:02:00,
2013-05-11 13:12:00,57.0,51.0,29.91,SW,222,3.0,9.0,81,0.00,,,0.01,,2013-05-11 17:12:00,
2013-05-11 13:22:00,58.0,53.0,29.90,SW,217,3.0,9.0,82,0.00,,,0.01,,2013-05-11 17:22:00,
2013-05-11 13:32:00,57.0,52.0,29.91,WSW,239,6.0,10.0,82,0.00,,,0.01,,2013-05-11 17:32:00,
2013-05-11 13:42:00,57.0,52.0,29.91,WSW,239,6.0,10.0,82,0.00,,,0.01,,2013-05-11 17:42:00,
2013-05-11 13:52:00,56.0,51.0,29.90,SSW,207,4.0,10.0,83,0.00,,,0.01,,2013-05-11 17:52:00,
2013-05-11 14:01:00,56.0,51.0,29.90,SW,222,4.0,11.0,83,0.00,,,0.01,,2013-05-11 18:01:00,
2013-05-11 14:11:00,56.0,51.0,29.90,SW,222,4.0,11.0,83,0.00,,,0.01,,2013-05-11 18:11:00,
2013-05-11 14:21:00,56.0,51.0,29.89,West,266,5.0,10.0,84,0.00,,,0.01,,2013-05-11 18:21:00,
2013-05-11 14:32:00,56.0,51.0,29.89,West,264,4.0,11.0,84,0.00,,,0.01,,2013-05-11 18:32:00,
2013-05-11 14:42:00,56.0,51.0,29.89,West,264,4.0,11.0,84,0.00,,,0.01,,2013-05-11 18:42:00,
2013-05-11 14:51:00,59.0,54.0,29.89,West,262,6.0,15.0,82,0.00,,,0.01,,2013-05-11 18:51:00,
2013-05-11 15:02:00,60.0,53.0,29.89,West,261,8.0,16.0,79,0.00,,,0.01,,2013-05-11 19:02:00,
2013-05-11 15:11:00,60.0,53.0,29.89,West,261,8.0,16.0,79,0.00,,,0.01,,2013-05-11 19:11:00,
2013-05-11 15:21:00,63.0,53.0,29.88,West,276,13.0,19.0,71,0.00,,,0.01,,2013-05-11 19:21:00,
2013-05-11 15:32:00,64.0,50.0,29.88,NW,320,14.0,20.0,61,0.00,,,0.01,,2013-05-11 19:32:00,
2013-05-11 15:41:00,64.0,50.0,29.88,NW,320,14.0,20.0,61,0.00,,,0.01,,2013-05-11 19:41:00,
2013-05-11 15:52:00,63.0,49.0,29.88,WNW,292,13.0,24.0,60,0.00,,,0.01,,2013-05-11 19:52:00,
2013-05-11 16:02:00,63.0,50.0,29.89,WNW,303,15.0,24.0,62,0.00,,,0.01,,2013-05-11 20:02:00,
2013-05-11 16:12:00,63.0,50.0,29.89,WNW,303,15.0,24.0,62,0.00,,,0.01,,2013-05-11 20:12:00,
2013-05-11 16:22:00,62.0,46.0,29.89,WNW,284,17.0,25.0,55,0.00,,,0.01,,2013-05-11 20:22:00,
2013-05-11 16:32:00,64.0,47.0,29.89,NW,310,17.0,25.0,53,0.00,,,0.01,,2013-05-11 20:32:00,
2013-05-11 16:42:00,64.0,47.0,29.89,NW,310,17.0,25.0,53,0.00,,,0.01,,2013-05-11 20:42:00,
2013-05-11 16:52:00,62.0,45.0,29.90,NW,304,16.0,24.0,53,0.00,,,0.01,,2013-05-11 20:52:00,
2013-05-11 17:02:00,61.0,44.0,29.91,NNW,328,12.0,22.0,54,0.00,,,0.01,,2013-05-11 21:02:00,
2013-05-11 17:11:00,61.0,44.0,29.91,NNW,328,12.0,22.0,54,0.00,,,0.01,,2013-05-11 21:11:00,
2013-05-11 17:21:00,60.0,42.0,29.91,NNW,332,13.0,19.0,51,0.00,,,0.01,,2013-05-11 21:21:00,
2013-05-11 17:33:00,59.0,41.0,29.92,NW,314,15.0,26.0,52,0.00,,,0.01,,2013-05-11 21:33:00,
2013-05-11 17:43:00,59.0,41.0,29.92,NW,314,15.0,26.0,52,0.00,,,0.01,,2013-05-11 21:43:00,
2013-05-11 17:52:00,60.0,36.0,29.92,NW,323,16.0,24.0,40,0.00,,,0.01,,2013-05-11 21:52:00,
2013-05-11 18:02:00,60.0,32.0,29.93,NNW,331,17.0,28.0,34,0.00,,,0.01,,2013-05-11 22:02:00,
2013-05-11 18:13:00,60.0,32.0,29.93,NNW,331,17.0,28.0,34,0.00,,,0.01,,2013-05-11 22:13:00,
2013-05-11 18:23:00,60.0,33.0,29.94,NNW,340,15.0,23.0,36,0.00,,,0.01,,2013-05-11 22:23:00,
2013-05-11 18:33:00,59.0,33.0,29.94,NNW,327,10.0,24.0,37,0.00,,,0.01,,2013-05-11 22:33:00,
2013-05-11 18:42:00,59.0,33.0,29.94,NNW,327,10.0,24.0,37,0.00,,,0.01,,2013-05-11 22:42:00,
2013-05-11 18:52:00,57.0,31.0,29.95,NNW,344,13.0,28.0,37,0.00,,,0.01,,2013-05-11 22:52:00,
2013-05-11 19:02:00,56.0,32.0,29.95,NNW,330,16.0,24.0,40,0.00,,,0.01,,2013-05-11 23:02:00,
2013-05-11 19:12:00,56.0,32.0,29.95,NNW,330,16.0,24.0,40,0.00,,,0.01,,2013-05-11 23:12:00,
2013-05-11 19:22:00,57.0,31.0,29.96,NW,317,14.0,26.0,37,0.00,,,0.01,,2013-05-11 23:22:00,
2013-05-11 19:32:00,56.0,30.0,29.96,NNW,330,12.0,22.0,37,0.00,,,0.01,,2013-05-11 23:32:00,
2013-05-11 19:42:00,56.0,30.0,29.96,NNW,330,12.0,22.0,37,0.00,,,0.01,,2013-05-11 23:42:00,
2013-05-11 19:52:00,56.0,31.0,29.97,NNW,335,14.0,22.0,39,0.00,,,0.01,,2013-05-11 23:52:00,
2013-05-11 20:01:00,54.0,31.0,29.98,NW,313,12.0,20.0,42,0.00,,,0.01,,2013-05-12 00:01:00,
2013-05-11 20:11:00,54.0,31.0,29.98,NW,313,12.0,20.0,42,0.00,,,0.01,,2013-05-12 00:11:00,
2013-05-11 20:21:00,53.0,31.0,29.99,NNW,332,13.0,22.0,43,0.00,,,0.01,,2013-05-12 00:21:00,
2013-05-11 20:32:00,53.0,31.0,30.00,NW,315,15.0,20.0,43,0.00,,,0.01,,2013-05-12 00:32:00,
2013-05-11 20:42:00,53.0,31.0,30.00,NW,315,15.0,20.0,43,0.00,,,0.01,,2013-05-12 00:42:00,
2013-05-11 20:52:00,52.0,32.0,30.00,WNW,298,11.0,19.0,47,0.00,,,0.01,,2013-05-12 00:52:00,
2013-05-11 21:01:00,51.0,33.0,30.00,NW,312,11.0,17.0,49,0.00,,,0.01,,2013-05-12 01:01:00,
2013-05-11 21:11:00,51.0,33.0,30.00,NW,312,11.0,17.0,49,0.00,,,0.01,,2013-05-12 01:11:00,
2013-05-11 21:21:00,51.0,31.0,30.01,NW,322,11.0,16.0,47,0.00,,,0.01,,2013-05-12 01:21:00,
2013-05-11 21:32:00,50.0,31.0,30.01,NW,318,8.0,13.0,48,0.00,,,0.01,,2013-05-12 01:32:00,
2013-05-11 21:41:00,50.0,31.0,30.01,NW,318,8.0,13.0,48,0.00,,,0.01,,2013-05-12 01:41:00,
2013-05-11 21:52:00,49.0,31.0,30.02,North,355,9.0,16.0,50,0.00,,,0.01,,2013-05-12 01:52:00,
2013-05-11 22:01:00,49.0,33.0,30.03,North,349,7.0,14.0,53,0.00,,,0.01,,2013-05-12 02:01:00,
2013-05-11 22:11:00,49.0,33.0,30.03,North,349,7.0,14.0,53,0.00,,,0.01,,2013-05-12 02:11:00,
2013-05-11 22:22:00,48.0,33.0,30.03,NNW,331,5.0,12.0,56,0.00,,,0.01,,2013-05-12 02:22:00,
2013-05-11 22:32:00,47.0,33.0,30.04,NW,319,5.0,9.0,58,0.00,,,0.01,,2013-05-12 02:32:00,
2013-05-11 22:42:00,46.0,33.0,30.04,NW,321,6.0,9.0,61,0.00,,,0.01,,2013-05-12 02:42:00,
2013-05-11 22:52:00,46.0,33.0,30.04,NW,321,6.0,9.0,61,0.00,,,0.01,,2013-05-12 02:52:00,
2013-05-11 23:01:00,45.0,34.0,30.05,NNW,328,3.0,6.0,65,0.00,,,0.01,,2013-05-12 03:01:00,
2013-05-11 23:11:00,45.0,34.0,30.05,NNW,328,3.0,6.0,65,0.00,,,0.01,,2013-05-12 03:11:00,
2013-05-11 23:22:00,44.0,34.0,30.05,NNW,331,3.0,6.0,68,0.00,,,0.01,,2013-05-12 03:22:00,
2013-05-11 23:33:00,43.0,34.0,30.05,NW,313,3.0,5.0,71,0.00,,,0.01,,2013-05-12 03:33:00,
2013-05-11 23:42:00,43.0,34.0,30.05,NW,313,3.0,5.0,71,0.00,,,0.01,,2013-05-12 03:42:00,
2013-05-11 23:53:00,42.0,33.0,30.05,NW,312,3.0,6.0,71,0.00,,,0.01,,2013-05-12 03:53:00,